sensor_id;sensor_type;location;lat;lon;timestamp;P1;durP1;ratioP1;P2;durP2;ratioP2
75793;SDS011;64418;47.536;19.074;2023-11-19T00:00:21;7.43;;;3.87;;
75793;SDS011;64418;47.536;19.074;2023-11-19T00:02:48;7.55;;;3.92;;
75793;SDS011;64418;47.536;19.074;2023-11-19T00:05:14;7.73;;;3.60;;
75793;SDS011;64418;47.536;19.074;2023-11-19T00:07:41;8.35;;;4.05;;
75793;SDS011;64418;47.536;19.074;2023-11-19T00:10:08;7.45;;;4.00;;
75793;SDS011;64418;47.536;19.074;2023-11-19T00:12:34;7.93;;;3.83;;
75793;SDS011;64418;47.536;19.074;2023-11-19T00:15:01;6.70;;;4.10;;
75793;SDS011;64418;47.536;19.074;2023-11-19T00:17:27;7.60;;;4.03;;
75793;SDS011;64418;47.536;19.074;2023-11-19T00:19:54;7.87;;;3.87;;
75793;SDS011;64418;47.536;19.074;2023-11-19T00:22:19;6.78;;;3.70;;
75793;SDS011;64418;47.536;19.074;2023-11-19T00:24:46;7.70;;;4.03;;
75793;SDS011;64418;47.536;19.074;2023-11-19T00:27:12;9.30;;;4.37;;
75793;SDS011;64418;47.536;19.074;2023-11-19T00:29:38;7.73;;;4.00;;
75793;SDS011;64418;47.536;19.074;2023-11-19T00:32:06;7.82;;;4.35;;
75793;SDS011;64418;47.536;19.074;2023-11-19T00:34:33;7.35;;;3.90;;
75793;SDS011;64418;47.536;19.074;2023-11-19T00:36:58;7.93;;;4.15;;
75793;SDS011;64418;47.536;19.074;2023-11-19T00:39:24;9.43;;;4.43;;
75793;SDS011;64418;47.536;19.074;2023-11-19T00:41:50;7.97;;;3.67;;
75793;SDS011;64418;47.536;19.074;2023-11-19T00:44:16;8.77;;;4.03;;
75793;SDS011;64418;47.536;19.074;2023-11-19T00:46:42;9.85;;;4.22;;
75793;SDS011;64418;47.536;19.074;2023-11-19T00:49:09;7.05;;;3.92;;
75793;SDS011;64418;47.536;19.074;2023-11-19T00:51:35;7.03;;;3.60;;
75793;SDS011;64418;47.536;19.074;2023-11-19T00:54:01;9.18;;;4.10;;
75793;SDS011;64418;47.536;19.074;2023-11-19T00:56:27;7.07;;;3.90;;
75793;SDS011;64418;47.536;19.074;2023-11-19T00:58:53;8.10;;;4.10;;
75793;SDS011;64418;47.536;19.074;2023-11-19T01:01:19;8.45;;;4.10;;
75793;SDS011;64418;47.536;19.074;2023-11-19T01:03:45;8.77;;;4.43;;
75793;SDS011;64418;47.536;19.074;2023-11-19T01:06:12;8.68;;;4.70;;
75793;SDS011;64418;47.536;19.074;2023-11-19T01:08:38;7.22;;;4.15;;
75793;SDS011;64418;47.536;19.074;2023-11-19T01:11:05;8.38;;;4.10;;
75793;SDS011;64418;47.536;19.074;2023-11-19T01:13:31;9.00;;;4.13;;
75793;SDS011;64418;47.536;19.074;2023-11-19T01:15:57;8.50;;;4.47;;
75793;SDS011;64418;47.536;19.074;2023-11-19T01:18:22;7.82;;;3.80;;
75793;SDS011;64418;47.536;19.074;2023-11-19T01:20:49;15.02;;;6.55;;
75793;SDS011;64418;47.536;19.074;2023-11-19T01:23:16;42.73;;;16.20;;
75793;SDS011;64418;47.536;19.074;2023-11-19T01:25:43;57.22;;;26.00;;
75793;SDS011;64418;47.536;19.074;2023-11-19T01:28:09;45.25;;;20.55;;
75793;SDS011;64418;47.536;19.074;2023-11-19T01:30:34;39.93;;;18.40;;
75793;SDS011;64418;47.536;19.074;2023-11-19T01:33:01;23.10;;;10.98;;
75793;SDS011;64418;47.536;19.074;2023-11-19T01:35:27;14.85;;;7.00;;
75793;SDS011;64418;47.536;19.074;2023-11-19T01:37:53;10.30;;;4.87;;
75793;SDS011;64418;47.536;19.074;2023-11-19T01:40:21;8.37;;;4.33;;
75793;SDS011;64418;47.536;19.074;2023-11-19T01:42:47;8.47;;;4.40;;
75793;SDS011;64418;47.536;19.074;2023-11-19T01:45:21;10.25;;;4.55;;
75793;SDS011;64418;47.536;19.074;2023-11-19T01:47:51;8.75;;;4.82;;
75793;SDS011;64418;47.536;19.074;2023-11-19T01:50:17;10.05;;;4.75;;
75793;SDS011;64418;47.536;19.074;2023-11-19T01:52:43;9.20;;;4.70;;
75793;SDS011;64418;47.536;19.074;2023-11-19T01:55:10;8.35;;;4.25;;
75793;SDS011;64418;47.536;19.074;2023-11-19T01:57:39;8.15;;;4.35;;
75793;SDS011;64418;47.536;19.074;2023-11-19T02:00:06;8.88;;;4.80;;
75793;SDS011;64418;47.536;19.074;2023-11-19T02:02:33;8.77;;;4.07;;
75793;SDS011;64418;47.536;19.074;2023-11-19T02:05:00;9.77;;;4.53;;
75793;SDS011;64418;47.536;19.074;2023-11-19T02:07:27;8.57;;;4.72;;
75793;SDS011;64418;47.536;19.074;2023-11-19T02:09:53;11.05;;;5.07;;
75793;SDS011;64418;47.536;19.074;2023-11-19T02:12:18;10.13;;;4.50;;
75793;SDS011;64418;47.536;19.074;2023-11-19T02:14:46;9.70;;;4.65;;
75793;SDS011;64418;47.536;19.074;2023-11-19T02:17:25;9.25;;;4.55;;
75793;SDS011;64418;47.536;19.074;2023-11-19T02:19:51;8.90;;;4.53;;
75793;SDS011;64418;47.536;19.074;2023-11-19T02:22:17;9.07;;;4.18;;
75793;SDS011;64418;47.536;19.074;2023-11-19T02:24:43;9.00;;;4.30;;
75793;SDS011;64418;47.536;19.074;2023-11-19T02:27:13;8.75;;;4.53;;
75793;SDS011;64418;47.536;19.074;2023-11-19T02:29:46;9.20;;;4.53;;
75793;SDS011;64418;47.536;19.074;2023-11-19T02:32:11;10.52;;;4.60;;
75793;SDS011;64418;47.536;19.074;2023-11-19T02:34:37;8.90;;;4.50;;
75793;SDS011;64418;47.536;19.074;2023-11-19T02:37:03;11.00;;;4.93;;
75793;SDS011;64418;47.536;19.074;2023-11-19T02:39:29;9.27;;;4.77;;
75793;SDS011;64418;47.536;19.074;2023-11-19T02:41:55;9.77;;;4.63;;
75793;SDS011;64418;47.536;19.074;2023-11-19T02:44:22;7.50;;;4.18;;
75793;SDS011;64418;47.536;19.074;2023-11-19T02:46:49;9.55;;;4.50;;
75793;SDS011;64418;47.536;19.074;2023-11-19T02:49:15;8.60;;;4.53;;
75793;SDS011;64418;47.536;19.074;2023-11-19T02:51:41;9.80;;;4.87;;
75793;SDS011;64418;47.536;19.074;2023-11-19T02:54:06;9.43;;;4.65;;
75793;SDS011;64418;47.536;19.074;2023-11-19T02:56:33;11.02;;;4.75;;
75793;SDS011;64418;47.536;19.074;2023-11-19T02:58:59;8.93;;;5.23;;
75793;SDS011;64418;47.536;19.074;2023-11-19T03:01:24;10.57;;;4.93;;
75793;SDS011;64418;47.536;19.074;2023-11-19T03:03:52;10.98;;;5.00;;
75793;SDS011;64418;47.536;19.074;2023-11-19T03:06:18;9.88;;;4.80;;
75793;SDS011;64418;47.536;19.074;2023-11-19T03:08:44;9.20;;;5.20;;
75793;SDS011;64418;47.536;19.074;2023-11-19T03:11:09;11.73;;;5.37;;
75793;SDS011;64418;47.536;19.074;2023-11-19T03:13:35;10.15;;;5.22;;
75793;SDS011;64418;47.536;19.074;2023-11-19T03:16:01;12.17;;;5.60;;
75793;SDS011;64418;47.536;19.074;2023-11-19T03:18:27;11.55;;;5.82;;
75793;SDS011;64418;47.536;19.074;2023-11-19T03:20:54;11.00;;;5.75;;
75793;SDS011;64418;47.536;19.074;2023-11-19T03:23:20;13.95;;;6.28;;
75793;SDS011;64418;47.536;19.074;2023-11-19T03:25:46;10.53;;;5.77;;
75793;SDS011;64418;47.536;19.074;2023-11-19T03:28:12;10.15;;;5.47;;
75793;SDS011;64418;47.536;19.074;2023-11-19T03:30:38;13.97;;;7.27;;
75793;SDS011;64418;47.536;19.074;2023-11-19T03:33:04;12.82;;;6.20;;
75793;SDS011;64418;47.536;19.074;2023-11-19T03:35:30;13.70;;;6.32;;
75793;SDS011;64418;47.536;19.074;2023-11-19T03:37:58;12.35;;;6.12;;
75793;SDS011;64418;47.536;19.074;2023-11-19T03:40:24;12.77;;;6.23;;
75793;SDS011;64418;47.536;19.074;2023-11-19T03:42:50;13.10;;;6.37;;
75793;SDS011;64418;47.536;19.074;2023-11-19T03:45:16;16.08;;;6.32;;
75793;SDS011;64418;47.536;19.074;2023-11-19T03:47:42;10.90;;;5.87;;
75793;SDS011;64418;47.536;19.074;2023-11-19T03:50:08;11.88;;;5.85;;
75793;SDS011;64418;47.536;19.074;2023-11-19T03:52:34;14.10;;;6.20;;
75793;SDS011;64418;47.536;19.074;2023-11-19T03:55:01;13.32;;;6.22;;
75793;SDS011;64418;47.536;19.074;2023-11-19T03:57:27;10.77;;;5.97;;
75793;SDS011;64418;47.536;19.074;2023-11-19T03:59:53;13.27;;;6.57;;
75793;SDS011;64418;47.536;19.074;2023-11-19T04:02:19;11.95;;;6.25;;
75793;SDS011;64418;47.536;19.074;2023-11-19T04:04:45;10.52;;;5.60;;
75793;SDS011;64418;47.536;19.074;2023-11-19T04:07:11;12.67;;;6.10;;
75793;SDS011;64418;47.536;19.074;2023-11-19T04:09:37;10.77;;;6.18;;
75793;SDS011;64418;47.536;19.074;2023-11-19T04:12:04;10.47;;;5.30;;
75793;SDS011;64418;47.536;19.074;2023-11-19T04:14:30;12.18;;;5.47;;
75793;SDS011;64418;47.536;19.074;2023-11-19T04:16:56;13.70;;;6.03;;
75793;SDS011;64418;47.536;19.074;2023-11-19T04:19:22;12.03;;;6.00;;
75793;SDS011;64418;47.536;19.074;2023-11-19T04:21:48;10.27;;;5.62;;
75793;SDS011;64418;47.536;19.074;2023-11-19T04:24:14;9.38;;;5.32;;
75793;SDS011;64418;47.536;19.074;2023-11-19T04:26:40;14.83;;;6.23;;
75793;SDS011;64418;47.536;19.074;2023-11-19T04:29:08;10.68;;;5.50;;
75793;SDS011;64418;47.536;19.074;2023-11-19T04:31:34;9.98;;;6.22;;
75793;SDS011;64418;47.536;19.074;2023-11-19T04:34:00;12.53;;;5.57;;
75793;SDS011;64418;47.536;19.074;2023-11-19T04:36:26;14.52;;;6.35;;
75793;SDS011;64418;47.536;19.074;2023-11-19T04:38:51;11.83;;;6.03;;
75793;SDS011;64418;47.536;19.074;2023-11-19T04:41:17;11.65;;;6.43;;
75793;SDS011;64418;47.536;19.074;2023-11-19T04:43:43;14.57;;;5.90;;
75793;SDS011;64418;47.536;19.074;2023-11-19T04:46:10;13.10;;;6.82;;
75793;SDS011;64418;47.536;19.074;2023-11-19T04:48:36;11.17;;;5.40;;
75793;SDS011;64418;47.536;19.074;2023-11-19T04:51:04;12.07;;;5.70;;
75793;SDS011;64418;47.536;19.074;2023-11-19T04:53:33;12.60;;;5.70;;
75793;SDS011;64418;47.536;19.074;2023-11-19T04:55:59;13.25;;;5.60;;
75793;SDS011;64418;47.536;19.074;2023-11-19T04:58:24;13.90;;;5.63;;
75793;SDS011;64418;47.536;19.074;2023-11-19T05:00:50;12.77;;;5.18;;
75793;SDS011;64418;47.536;19.074;2023-11-19T05:03:18;10.85;;;5.15;;
75793;SDS011;64418;47.536;19.074;2023-11-19T05:05:44;13.23;;;5.70;;
75793;SDS011;64418;47.536;19.074;2023-11-19T05:08:10;10.00;;;4.62;;
75793;SDS011;64418;47.536;19.074;2023-11-19T05:10:36;8.85;;;4.95;;
75793;SDS011;64418;47.536;19.074;2023-11-19T05:13:01;12.20;;;5.33;;
75793;SDS011;64418;47.536;19.074;2023-11-19T05:15:27;9.63;;;5.00;;
75793;SDS011;64418;47.536;19.074;2023-11-19T05:17:53;11.47;;;5.03;;
75793;SDS011;64418;47.536;19.074;2023-11-19T05:20:20;8.30;;;4.65;;
75793;SDS011;64418;47.536;19.074;2023-11-19T05:22:46;8.80;;;5.05;;
75793;SDS011;64418;47.536;19.074;2023-11-19T05:25:12;10.90;;;5.30;;
75793;SDS011;64418;47.536;19.074;2023-11-19T05:27:38;14.57;;;5.30;;
75793;SDS011;64418;47.536;19.074;2023-11-19T05:30:05;11.43;;;5.47;;
75793;SDS011;64418;47.536;19.074;2023-11-19T05:32:31;12.25;;;5.43;;
75793;SDS011;64418;47.536;19.074;2023-11-19T05:34:57;13.33;;;6.37;;
75793;SDS011;64418;47.536;19.074;2023-11-19T05:37:24;9.68;;;4.85;;
75793;SDS011;64418;47.536;19.074;2023-11-19T05:39:50;11.05;;;5.28;;
75793;SDS011;64418;47.536;19.074;2023-11-19T05:42:16;12.53;;;5.50;;
75793;SDS011;64418;47.536;19.074;2023-11-19T05:44:42;9.57;;;5.12;;
75793;SDS011;64418;47.536;19.074;2023-11-19T05:47:08;11.75;;;5.57;;
75793;SDS011;64418;47.536;19.074;2023-11-19T05:49:34;11.73;;;5.93;;
75793;SDS011;64418;47.536;19.074;2023-11-19T05:52:00;11.77;;;6.65;;
75793;SDS011;64418;47.536;19.074;2023-11-19T05:54:27;14.05;;;6.60;;
75793;SDS011;64418;47.536;19.074;2023-11-19T05:56:53;14.65;;;6.95;;
75793;SDS011;64418;47.536;19.074;2023-11-19T05:59:19;15.53;;;6.40;;
75793;SDS011;64418;47.536;19.074;2023-11-19T06:01:45;15.43;;;7.05;;
75793;SDS011;64418;47.536;19.074;2023-11-19T06:04:11;14.85;;;6.57;;
75793;SDS011;64418;47.536;19.074;2023-11-19T06:06:37;13.88;;;6.97;;
75793;SDS011;64418;47.536;19.074;2023-11-19T06:09:03;16.62;;;7.07;;
75793;SDS011;64418;47.536;19.074;2023-11-19T06:11:30;16.27;;;7.47;;
75793;SDS011;64418;47.536;19.074;2023-11-19T06:13:56;17.42;;;7.10;;
75793;SDS011;64418;47.536;19.074;2023-11-19T06:16:23;14.02;;;7.18;;
75793;SDS011;64418;47.536;19.074;2023-11-19T06:18:49;16.27;;;7.82;;
75793;SDS011;64418;47.536;19.074;2023-11-19T06:21:15;19.17;;;7.83;;
75793;SDS011;64418;47.536;19.074;2023-11-19T06:23:41;14.87;;;7.55;;
75793;SDS011;64418;47.536;19.074;2023-11-19T06:26:07;15.68;;;7.20;;
75793;SDS011;64418;47.536;19.074;2023-11-19T06:28:35;15.70;;;7.47;;
75793;SDS011;64418;47.536;19.074;2023-11-19T06:31:01;16.90;;;7.27;;
75793;SDS011;64418;47.536;19.074;2023-11-19T06:33:28;19.12;;;7.45;;
75793;SDS011;64418;47.536;19.074;2023-11-19T06:35:55;15.15;;;7.82;;
75793;SDS011;64418;47.536;19.074;2023-11-19T06:38:21;15.75;;;7.70;;
75793;SDS011;64418;47.536;19.074;2023-11-19T06:40:47;15.50;;;8.20;;
75793;SDS011;64418;47.536;19.074;2023-11-19T06:43:13;16.45;;;7.50;;
75793;SDS011;64418;47.536;19.074;2023-11-19T06:45:40;18.17;;;7.82;;
75793;SDS011;64418;47.536;19.074;2023-11-19T06:48:06;15.85;;;8.38;;
75793;SDS011;64418;47.536;19.074;2023-11-19T06:50:32;15.97;;;8.37;;
75793;SDS011;64418;47.536;19.074;2023-11-19T06:52:58;17.00;;;7.97;;
75793;SDS011;64418;47.536;19.074;2023-11-19T06:55:26;23.45;;;8.50;;
75793;SDS011;64418;47.536;19.074;2023-11-19T06:57:52;16.55;;;8.57;;
75793;SDS011;64418;47.536;19.074;2023-11-19T07:00:18;16.13;;;8.00;;
75793;SDS011;64418;47.536;19.074;2023-11-19T07:02:45;16.90;;;7.72;;
75793;SDS011;64418;47.536;19.074;2023-11-19T07:05:11;17.10;;;7.93;;
75793;SDS011;64418;47.536;19.074;2023-11-19T07:07:38;15.13;;;7.65;;
75793;SDS011;64418;47.536;19.074;2023-11-19T07:10:05;14.87;;;7.53;;
75793;SDS011;64418;47.536;19.074;2023-11-19T07:12:33;13.63;;;7.63;;
75793;SDS011;64418;47.536;19.074;2023-11-19T07:15:06;12.93;;;7.40;;
75793;SDS011;64418;47.536;19.074;2023-11-19T07:17:32;17.52;;;7.40;;
75793;SDS011;64418;47.536;19.074;2023-11-19T07:20:00;16.48;;;7.45;;
75793;SDS011;64418;47.536;19.074;2023-11-19T07:22:26;15.13;;;7.15;;
75793;SDS011;64418;47.536;19.074;2023-11-19T07:24:51;15.13;;;7.40;;
75793;SDS011;64418;47.536;19.074;2023-11-19T07:27:17;12.95;;;7.65;;
75793;SDS011;64418;47.536;19.074;2023-11-19T07:29:44;16.02;;;7.80;;
75793;SDS011;64418;47.536;19.074;2023-11-19T07:32:10;16.13;;;7.60;;
75793;SDS011;64418;47.536;19.074;2023-11-19T07:34:36;14.30;;;7.57;;
75793;SDS011;64418;47.536;19.074;2023-11-19T07:37:04;17.20;;;7.95;;
75793;SDS011;64418;47.536;19.074;2023-11-19T07:39:30;17.40;;;7.70;;
75793;SDS011;64418;47.536;19.074;2023-11-19T07:41:57;14.90;;;7.82;;
75793;SDS011;64418;47.536;19.074;2023-11-19T07:44:23;16.67;;;7.73;;
75793;SDS011;64418;47.536;19.074;2023-11-19T07:46:50;13.68;;;7.30;;
75793;SDS011;64418;47.536;19.074;2023-11-19T07:49:17;17.80;;;7.87;;
75793;SDS011;64418;47.536;19.074;2023-11-19T07:51:43;13.82;;;7.85;;
75793;SDS011;64418;47.536;19.074;2023-11-19T07:54:11;17.97;;;7.87;;
75793;SDS011;64418;47.536;19.074;2023-11-19T07:56:37;15.05;;;7.18;;
75793;SDS011;64418;47.536;19.074;2023-11-19T07:59:03;15.45;;;7.72;;
75793;SDS011;64418;47.536;19.074;2023-11-19T08:01:29;17.42;;;7.93;;
75793;SDS011;64418;47.536;19.074;2023-11-19T08:03:55;14.93;;;7.90;;
75793;SDS011;64418;47.536;19.074;2023-11-19T08:06:21;14.43;;;7.82;;
75793;SDS011;64418;47.536;19.074;2023-11-19T08:08:47;14.50;;;7.10;;
75793;SDS011;64418;47.536;19.074;2023-11-19T08:11:15;15.90;;;7.95;;
75793;SDS011;64418;47.536;19.074;2023-11-19T08:13:43;15.70;;;7.95;;
75793;SDS011;64418;47.536;19.074;2023-11-19T08:16:11;14.63;;;7.87;;
75793;SDS011;64418;47.536;19.074;2023-11-19T08:18:38;14.43;;;7.55;;
75793;SDS011;64418;47.536;19.074;2023-11-19T08:21:07;15.32;;;7.75;;
75793;SDS011;64418;47.536;19.074;2023-11-19T08:23:33;16.42;;;7.25;;
75793;SDS011;64418;47.536;19.074;2023-11-19T08:25:58;13.67;;;7.57;;
75793;SDS011;64418;47.536;19.074;2023-11-19T08:28:26;11.60;;;6.85;;
75793;SDS011;64418;47.536;19.074;2023-11-19T08:30:52;13.18;;;6.82;;
75793;SDS011;64418;47.536;19.074;2023-11-19T08:33:19;13.33;;;7.33;;
75793;SDS011;64418;47.536;19.074;2023-11-19T08:35:45;13.50;;;8.37;;
75793;SDS011;64418;47.536;19.074;2023-11-19T08:38:11;15.93;;;7.28;;
75793;SDS011;64418;47.536;19.074;2023-11-19T08:40:40;13.85;;;7.10;;
75793;SDS011;64418;47.536;19.074;2023-11-19T08:43:08;13.88;;;7.03;;
75793;SDS011;64418;47.536;19.074;2023-11-19T08:45:35;15.40;;;7.57;;
75793;SDS011;64418;47.536;19.074;2023-11-19T08:48:01;12.95;;;6.68;;
75793;SDS011;64418;47.536;19.074;2023-11-19T08:50:29;15.60;;;6.12;;
75793;SDS011;64418;47.536;19.074;2023-11-19T08:52:55;13.60;;;6.53;;
75793;SDS011;64418;47.536;19.074;2023-11-19T08:55:21;14.52;;;6.57;;
75793;SDS011;64418;47.536;19.074;2023-11-19T08:57:47;13.35;;;6.57;;
75793;SDS011;64418;47.536;19.074;2023-11-19T09:00:13;16.02;;;7.30;;
75793;SDS011;64418;47.536;19.074;2023-11-19T09:02:41;13.43;;;7.03;;
75793;SDS011;64418;47.536;19.074;2023-11-19T09:05:07;14.43;;;7.10;;
75793;SDS011;64418;47.536;19.074;2023-11-19T09:07:33;12.82;;;6.30;;
75793;SDS011;64418;47.536;19.074;2023-11-19T09:10:00;12.57;;;6.62;;
75793;SDS011;64418;47.536;19.074;2023-11-19T09:12:26;15.27;;;7.15;;
75793;SDS011;64418;47.536;19.074;2023-11-19T09:14:51;13.67;;;6.73;;
75793;SDS011;64418;47.536;19.074;2023-11-19T09:17:17;13.77;;;7.03;;
75793;SDS011;64418;47.536;19.074;2023-11-19T09:19:45;11.75;;;5.93;;
75793;SDS011;64418;47.536;19.074;2023-11-19T09:22:12;12.90;;;6.43;;
75793;SDS011;64418;47.536;19.074;2023-11-19T09:24:38;14.57;;;7.28;;
75793;SDS011;64418;47.536;19.074;2023-11-19T09:27:04;13.18;;;6.90;;
75793;SDS011;64418;47.536;19.074;2023-11-19T09:29:31;12.43;;;7.03;;
75793;SDS011;64418;47.536;19.074;2023-11-19T09:31:57;13.62;;;7.03;;
75793;SDS011;64418;47.536;19.074;2023-11-19T09:34:22;14.37;;;6.87;;
75793;SDS011;64418;47.536;19.074;2023-11-19T09:36:50;12.82;;;6.65;;
75793;SDS011;64418;47.536;19.074;2023-11-19T09:39:16;13.23;;;7.68;;
75793;SDS011;64418;47.536;19.074;2023-11-19T09:41:42;13.43;;;7.30;;
75793;SDS011;64418;47.536;19.074;2023-11-19T09:44:08;13.40;;;6.78;;
75793;SDS011;64418;47.536;19.074;2023-11-19T09:46:35;13.73;;;7.13;;
75793;SDS011;64418;47.536;19.074;2023-11-19T09:49:02;12.73;;;7.03;;
75793;SDS011;64418;47.536;19.074;2023-11-19T09:51:29;15.65;;;7.35;;
75793;SDS011;64418;47.536;19.074;2023-11-19T09:53:57;13.10;;;7.10;;
75793;SDS011;64418;47.536;19.074;2023-11-19T09:56:23;13.18;;;7.20;;
75793;SDS011;64418;47.536;19.074;2023-11-19T09:58:49;18.00;;;8.10;;
75793;SDS011;64418;47.536;19.074;2023-11-19T10:01:15;15.88;;;7.68;;
75793;SDS011;64418;47.536;19.074;2023-11-19T10:03:41;13.00;;;7.60;;
75793;SDS011;64418;47.536;19.074;2023-11-19T10:06:10;13.77;;;8.45;;
75793;SDS011;64418;47.536;19.074;2023-11-19T10:08:36;13.13;;;7.50;;
75793;SDS011;64418;47.536;19.074;2023-11-19T10:11:04;14.23;;;8.17;;
75793;SDS011;64418;47.536;19.074;2023-11-19T10:13:31;14.10;;;7.78;;
75793;SDS011;64418;47.536;19.074;2023-11-19T10:15:59;15.98;;;7.93;;
75793;SDS011;64418;47.536;19.074;2023-11-19T10:18:29;12.88;;;7.50;;
75793;SDS011;64418;47.536;19.074;2023-11-19T10:20:56;13.25;;;7.85;;
75793;SDS011;64418;47.536;19.074;2023-11-19T10:23:21;14.13;;;8.20;;
75793;SDS011;64418;47.536;19.074;2023-11-19T10:25:47;14.55;;;7.65;;
75793;SDS011;64418;47.536;19.074;2023-11-19T10:28:16;13.40;;;7.18;;
75793;SDS011;64418;47.536;19.074;2023-11-19T10:30:42;12.63;;;7.20;;
75793;SDS011;64418;47.536;19.074;2023-11-19T10:33:08;14.77;;;7.73;;
75793;SDS011;64418;47.536;19.074;2023-11-19T10:35:35;17.37;;;8.65;;
75793;SDS011;64418;47.536;19.074;2023-11-19T10:38:15;14.52;;;7.55;;
75793;SDS011;64418;47.536;19.074;2023-11-19T10:40:44;13.05;;;7.15;;
75793;SDS011;64418;47.536;19.074;2023-11-19T10:43:10;13.50;;;6.83;;
75793;SDS011;64418;47.536;19.074;2023-11-19T10:45:39;14.57;;;6.78;;
75793;SDS011;64418;47.536;19.074;2023-11-19T10:48:06;15.10;;;7.22;;
75793;SDS011;64418;47.536;19.074;2023-11-19T10:50:33;12.45;;;7.25;;
75793;SDS011;64418;47.536;19.074;2023-11-19T10:53:00;14.75;;;8.15;;
75793;SDS011;64418;47.536;19.074;2023-11-19T10:55:28;14.43;;;7.77;;
75793;SDS011;64418;47.536;19.074;2023-11-19T10:57:56;14.00;;;7.90;;
75793;SDS011;64418;47.536;19.074;2023-11-19T11:00:25;13.52;;;8.65;;
75793;SDS011;64418;47.536;19.074;2023-11-19T11:02:58;14.82;;;7.78;;
75793;SDS011;64418;47.536;19.074;2023-11-19T11:05:26;13.20;;;7.93;;
75793;SDS011;64418;47.536;19.074;2023-11-19T11:07:54;14.53;;;8.40;;
75793;SDS011;64418;47.536;19.074;2023-11-19T11:10:22;13.23;;;7.45;;
75793;SDS011;64418;47.536;19.074;2023-11-19T11:12:55;15.02;;;8.10;;
75793;SDS011;64418;47.536;19.074;2023-11-19T11:15:29;13.73;;;7.90;;
75793;SDS011;64418;47.536;19.074;2023-11-19T11:18:34;15.27;;;7.57;;
75793;SDS011;64418;47.536;19.074;2023-11-19T11:21:00;13.80;;;8.30;;
75793;SDS011;64418;47.536;19.074;2023-11-19T11:23:46;13.82;;;7.97;;
75793;SDS011;64418;47.536;19.074;2023-11-19T11:26:33;12.75;;;7.45;;
75793;SDS011;64418;47.536;19.074;2023-11-19T11:29:13;12.05;;;7.45;;
75793;SDS011;64418;47.536;19.074;2023-11-19T11:31:48;14.05;;;8.10;;
75793;SDS011;64418;47.536;19.074;2023-11-19T11:34:35;13.57;;;7.90;;
75793;SDS011;64418;47.536;19.074;2023-11-19T11:37:15;12.55;;;7.87;;
75793;SDS011;64418;47.536;19.074;2023-11-19T11:39:47;16.75;;;8.40;;
75793;SDS011;64418;47.536;19.074;2023-11-19T11:42:31;14.18;;;6.75;;
75793;SDS011;64418;47.536;19.074;2023-11-19T11:45:00;12.90;;;8.13;;
75793;SDS011;64418;47.536;19.074;2023-11-19T11:47:27;11.93;;;7.40;;
75793;SDS011;64418;47.536;19.074;2023-11-19T11:50:29;14.48;;;7.65;;
75793;SDS011;64418;47.536;19.074;2023-11-19T11:53:13;13.18;;;7.35;;
75793;SDS011;64418;47.536;19.074;2023-11-19T11:55:51;12.60;;;7.55;;
75793;SDS011;64418;47.536;19.074;2023-11-19T11:58:19;15.38;;;7.97;;
75793;SDS011;64418;47.536;19.074;2023-11-19T12:00:45;11.77;;;6.67;;
75793;SDS011;64418;47.536;19.074;2023-11-19T12:03:12;11.38;;;6.78;;
75793;SDS011;64418;47.536;19.074;2023-11-19T12:05:40;13.73;;;7.03;;
75793;SDS011;64418;47.536;19.074;2023-11-19T12:08:11;10.48;;;6.00;;
75793;SDS011;64418;47.536;19.074;2023-11-19T12:10:44;12.65;;;6.60;;
75793;SDS011;64418;47.536;19.074;2023-11-19T12:13:11;11.30;;;6.57;;
75793;SDS011;64418;47.536;19.074;2023-11-19T12:15:46;12.07;;;6.50;;
75793;SDS011;64418;47.536;19.074;2023-11-19T12:18:33;11.05;;;5.97;;
75793;SDS011;64418;47.536;19.074;2023-11-19T12:21:00;10.67;;;6.00;;
75793;SDS011;64418;47.536;19.074;2023-11-19T12:23:27;11.77;;;6.62;;
75793;SDS011;64418;47.536;19.074;2023-11-19T12:25:55;12.27;;;6.45;;
75793;SDS011;64418;47.536;19.074;2023-11-19T12:28:21;11.48;;;6.50;;
75793;SDS011;64418;47.536;19.074;2023-11-19T12:30:47;12.60;;;6.40;;
75793;SDS011;64418;47.536;19.074;2023-11-19T12:33:13;14.27;;;7.23;;
75793;SDS011;64418;47.536;19.074;2023-11-19T12:35:40;13.30;;;7.60;;
75793;SDS011;64418;47.536;19.074;2023-11-19T12:38:08;14.23;;;7.53;;
75793;SDS011;64418;47.536;19.074;2023-11-19T12:40:35;15.13;;;7.75;;
75793;SDS011;64418;47.536;19.074;2023-11-19T12:43:01;13.13;;;7.40;;
75793;SDS011;64418;47.536;19.074;2023-11-19T12:45:34;14.95;;;7.40;;
75793;SDS011;64418;47.536;19.074;2023-11-19T12:48:07;14.20;;;7.97;;
75793;SDS011;64418;47.536;19.074;2023-11-19T12:50:52;15.70;;;7.75;;
75793;SDS011;64418;47.536;19.074;2023-11-19T12:53:20;22.08;;;7.65;;
75793;SDS011;64418;47.536;19.074;2023-11-19T12:55:47;13.03;;;6.90;;
75793;SDS011;64418;47.536;19.074;2023-11-19T12:58:28;16.92;;;8.15;;
75793;SDS011;64418;47.536;19.074;2023-11-19T13:00:59;14.27;;;7.37;;
75793;SDS011;64418;47.536;19.074;2023-11-19T13:03:29;14.18;;;7.47;;
75793;SDS011;64418;47.536;19.074;2023-11-19T13:06:03;18.98;;;7.85;;
75793;SDS011;64418;47.536;19.074;2023-11-19T13:08:37;11.37;;;6.30;;
75793;SDS011;64418;47.536;19.074;2023-11-19T13:11:04;14.38;;;6.93;;
75793;SDS011;64418;47.536;19.074;2023-11-19T13:13:30;12.70;;;7.03;;
75793;SDS011;64418;47.536;19.074;2023-11-19T13:16:01;12.98;;;5.95;;
75793;SDS011;64418;47.536;19.074;2023-11-19T13:18:30;9.55;;;5.70;;
75793;SDS011;64418;47.536;19.074;2023-11-19T13:20:57;11.70;;;6.10;;
75793;SDS011;64418;47.536;19.074;2023-11-19T13:23:23;10.43;;;5.93;;
75793;SDS011;64418;47.536;19.074;2023-11-19T13:25:50;10.90;;;5.40;;
75793;SDS011;64418;47.536;19.074;2023-11-19T13:28:16;10.88;;;5.97;;
75793;SDS011;64418;47.536;19.074;2023-11-19T13:30:42;10.23;;;6.03;;
75793;SDS011;64418;47.536;19.074;2023-11-19T13:33:08;15.27;;;6.43;;
75793;SDS011;64418;47.536;19.074;2023-11-19T13:35:34;12.95;;;6.32;;
75793;SDS011;64418;47.536;19.074;2023-11-19T13:38:00;10.13;;;6.12;;
75793;SDS011;64418;47.536;19.074;2023-11-19T13:40:26;14.50;;;6.72;;
75793;SDS011;64418;47.536;19.074;2023-11-19T13:42:54;11.87;;;6.33;;
75793;SDS011;64418;47.536;19.074;2023-11-19T13:45:20;12.13;;;5.93;;
75793;SDS011;64418;47.536;19.074;2023-11-19T13:47:47;12.70;;;6.80;;
75793;SDS011;64418;47.536;19.074;2023-11-19T13:50:14;10.60;;;6.30;;
75793;SDS011;64418;47.536;19.074;2023-11-19T13:52:41;11.55;;;6.62;;
75793;SDS011;64418;47.536;19.074;2023-11-19T13:55:09;12.07;;;6.13;;
75793;SDS011;64418;47.536;19.074;2023-11-19T13:57:37;9.40;;;6.00;;
75793;SDS011;64418;47.536;19.074;2023-11-19T14:00:06;11.30;;;5.72;;
75793;SDS011;64418;47.536;19.074;2023-11-19T14:02:34;10.63;;;6.40;;
75793;SDS011;64418;47.536;19.074;2023-11-19T14:05:00;11.07;;;5.90;;
75793;SDS011;64418;47.536;19.074;2023-11-19T14:07:25;10.20;;;5.60;;
75793;SDS011;64418;47.536;19.074;2023-11-19T14:09:52;10.63;;;6.22;;
75793;SDS011;64418;47.536;19.074;2023-11-19T14:12:18;10.18;;;6.20;;
75793;SDS011;64418;47.536;19.074;2023-11-19T14:14:43;13.05;;;6.28;;
75793;SDS011;64418;47.536;19.074;2023-11-19T14:17:11;10.67;;;6.13;;
75793;SDS011;64418;47.536;19.074;2023-11-19T14:19:37;10.45;;;5.72;;
75793;SDS011;64418;47.536;19.074;2023-11-19T14:22:03;11.82;;;5.57;;
75793;SDS011;64418;47.536;19.074;2023-11-19T14:24:29;10.25;;;5.97;;